Time;durP1;ratioP1;P1;durP2;ratioP2;P2;SDS_P1;SDS_P2;PMS_P1;PMS_P2;Temp;Humidity;BMP_temperature;BMP_pressure;BME280_temperature;BME280_humidity;BME280_pressure;Samples;Min_cycle;Max_cycle;Signal;HPM_P1;HPM_P2
2024/01/15 06:35:52;;;;;;;5.95;1.80;;;;;;;0.85;100.00;100064.41;4835242;29;20041;-70
2024/01/15 06:38:17;;;;;;;5.30;1.40;;;;;;;0.84;100.00;100062.69;4837279;29;20041;-70
2024/01/15 06:40:48;;;;;;;4.40;1.17;;;;;;;0.83;100.00;100060.13;4838840;29;20036;-69
2024/01/15 06:43:14;;;;;;;4.10;1.45;;;;;;;0.86;100.00;100070.56;4838613;29;20120;-69
2024/01/15 06:45:39;;;;;;;4.53;1.30;;;;;;;0.81;100.00;100067.28;4851259;29;20029;-69
2024/01/15 06:48:05;;;;;;;2.38;1.20;;;;;;;0.80;100.00;100068.22;4852151;29;20052;-70
2024/01/15 06:50:30;;;;;;;2.40;1.23;;;;;;;0.75;100.00;100065.78;4836861;29;20377;-72
2024/01/15 06:52:56;;;;;;;2.63;0.93;;;;;;;0.76;100.00;100063.97;4835609;29;20037;-71
2024/01/15 06:55:21;;;;;;;4.78;1.27;;;;;;;0.75;100.00;100062.25;4853640;29;20026;-69
2024/01/15 06:57:46;;;;;;;2.80;1.35;;;;;;;0.73;100.00;100054.38;4836819;29;20033;-70
2024/01/15 07:00:12;;;;;;;3.63;1.08;;;;;;;0.71;100.00;100052.75;4833786;29;20089;-70
2024/01/15 07:02:38;;;;;;;3.15;1.25;;;;;;;0.71;100.00;100061.53;4855055;29;20022;-70
2024/01/15 07:05:05;;;;;;;4.82;1.23;;;;;;;0.69;100.00;100058.97;4835288;29;20031;-69
2024/01/15 07:07:30;;;;;;;3.08;1.45;;;;;;;0.70;100.00;100054.53;4837095;29;20041;-70
2024/01/15 07:09:56;;;;;;;2.53;1.20;;;;;;;0.73;100.00;100059.69;4854499;29;20025;-69
2024/01/15 07:12:21;;;;;;;5.13;1.85;;;;;;;0.75;100.00;100063.13;4852168;29;20140;-69
2024/01/15 07:14:46;;;;;;;3.90;1.65;;;;;;;0.78;100.00;100062.13;4834560;29;20045;-71
2024/01/15 07:17:12;;;;;;;4.22;1.70;;;;;;;0.78;100.00;100064.78;4849847;29;20025;-70
2024/01/15 07:19:37;;;;;;;5.07;1.70;;;;;;;0.78;100.00;100064.78;4853312;29;20033;-69
2024/01/15 07:22:03;;;;;;;5.32;1.90;;;;;;;0.79;100.00;100062.06;4837017;29;20357;-71
2024/01/15 07:24:28;;;;;;;4.20;1.50;;;;;;;0.76;100.00;100063.97;4852549;29;20081;-69
2024/01/15 07:26:53;;;;;;;4.45;1.77;;;;;;;0.71;100.00;100065.97;4836894;29;20459;-71
2024/01/15 07:29:18;;;;;;;3.88;1.70;;;;;;;0.72;100.00;100067.69;4838600;29;20100;-70
2024/01/15 07:31:49;;;;;;;8.10;2.17;;;;;;;0.69;100.00;100063.41;4837458;29;20021;-70
2024/01/15 07:34:14;;;;;;;4.22;1.75;;;;;;;0.67;100.00;100066.13;4846950;29;20162;-70
2024/01/15 07:36:39;;;;;;;6.72;2.38;;;;;;;0.68;100.00;100057.25;4833001;29;20177;-70
2024/01/15 07:39:05;;;;;;;7.03;2.55;;;;;;;0.66;100.00;100074.13;4828878;29;20593;-70
2024/01/15 07:41:30;;;;;;;7.22;2.50;;;;;;;0.66;100.00;100064.41;4817774;29;20030;-70
2024/01/15 07:43:56;;;;;;;8.38;2.63;;;;;;;0.67;100.00;100071.41;4819113;29;20029;-70
2024/01/15 07:46:21;;;;;;;10.50;2.95;;;;;;;0.60;100.00;100056.75;4829129;29;20067;-69
2024/01/15 07:48:46;;;;;;;9.65;3.10;;;;;;;0.61;100.00;100071.66;4817299;29;20018;-69
2024/01/15 07:51:12;;;;;;;6.45;2.47;;;;;;;0.63;100.00;100074.25;4819076;29;20546;-71
2024/01/15 07:53:37;;;;;;;12.30;3.25;;;;;;;0.61;100.00;100071.66;4835110;29;20073;-71
2024/01/15 07:56:02;;;;;;;12.13;3.60;;;;;;;0.68;100.00;100083.69;4836815;29;20141;-70
2024/01/15 07:58:28;;;;;;;10.35;3.45;;;;;;;0.67;100.00;100086.41;4834483;29;20044;-72
2024/01/15 08:00:53;;;;;;;14.15;3.90;;;;;;;0.58;100.00;100086.81;4832618;29;20088;-70
2024/01/15 08:03:18;;;;;;;12.48;3.60;;;;;;;0.58;100.00;100089.47;4812939;29;20447;-70
2024/01/15 08:05:44;;;;;;;11.35;3.58;;;;;;;0.58;100.00;100092.97;4828352;29;20124;-71
2024/01/15 08:08:09;;;;;;;10.45;3.05;;;;;;;0.59;100.00;100092.03;4829284;29;20034;-70
2024/01/15 08:10:34;;;;;;;11.45;3.33;;;;;;;0.58;100.00;100098.25;4830712;29;20026;-70
2024/01/15 08:13:00;;;;;;;10.98;3.75;;;;;;;0.60;100.00;100088.47;4817195;29;20033;-70
2024/01/15 08:15:25;;;;;;;12.77;3.33;;;;;;;0.65;100.00;100096.19;4816805;29;20038;-70
2024/01/15 08:17:50;;;;;;;5.57;2.38;;;;;;;0.62;100.00;100093.69;4814074;29;20024;-69
2024/01/15 08:20:16;;;;;;;9.20;2.88;;;;;;;0.62;100.00;100094.53;4816292;29;20034;-70
2024/01/15 08:22:41;;;;;;;6.63;2.60;;;;;;;0.63;100.00;100096.28;4832772;29;20350;-69
2024/01/15 08:25:07;;;;;;;10.65;2.83;;;;;;;0.71;100.00;100095.94;4833312;29;20068;-70
2024/01/15 08:27:32;;;;;;;9.82;2.80;;;;;;;0.71;100.00;100090.63;4834581;29;20029;-70
2024/01/15 08:29:57;;;;;;;8.60;2.78;;;;;;;0.71;100.00;100097.72;4831093;29;20479;-70
2024/01/15 08:32:23;;;;;;;5.35;2.30;;;;;;;0.63;100.00;100090.09;4832735;29;20030;-69
2024/01/15 08:34:52;;;;;;;10.93;2.47;;;;;;;0.64;100.00;100097.13;4814126;29;20046;-70
2024/01/15 08:37:17;;;;;;;5.93;2.38;;;;;;;0.66;100.00;100096.13;4813782;29;20034;-68
2024/01/15 08:39:42;;;;;;;5.05;2.05;;;;;;;0.77;100.00;100098.28;4815213;29;20473;-69
2024/01/15 08:42:08;;;;;;;4.35;1.80;;;;;;;0.63;100.00;100109.50;4816922;29;20026;-69
2024/01/15 08:44:33;;;;;;;3.03;1.63;;;;;;;0.60;100.00;100107.00;4815670;29;20158;-69
2024/01/15 08:46:58;;;;;;;6.97;1.60;;;;;;;0.59;100.00;100105.25;4833115;29;20038;-69
2024/01/15 08:49:24;;;;;;;4.00;1.50;;;;;;;0.59;100.00;100107.06;4812337;29;20033;-69
2024/01/15 08:51:49;;;;;;;5.38;2.00;;;;;;;0.56;100.00;100102.75;4814142;29;20034;-69
2024/01/15 08:54:14;;;;;;;5.15;1.52;;;;;;;0.57;100.00;100096.56;4817868;29;20029;-71
2024/01/15 08:56:40;;;;;;;4.50;1.23;;;;;;;0.57;100.00;100093.03;4833131;29;20381;-69
2024/01/15 08:59:05;;;;;;;4.32;1.38;;;;;;;0.55;100.00;100101.03;4814208;29;20045;-69
2024/01/15 09:01:30;;;;;;;4.43;1.27;;;;;;;0.64;100.00;100102.41;4818313;29;20018;-71
2024/01/15 09:03:56;;;;;;;5.10;1.25;;;;;;;0.57;100.00;100112.41;4835115;29;20065;-69
2024/01/15 09:06:21;;;;;;;5.38;1.55;;;;;;;0.59;100.00;100092.03;4829455;29;20133;-69
2024/01/15 09:08:46;;;;;;;7.80;1.77;;;;;;;0.64;100.00;100103.25;4834327;29;20046;-69
2024/01/15 09:11:12;;;;;;;5.35;1.02;;;;;;;0.66;100.00;100106.72;4817761;29;20033;-69
2024/01/15 09:13:37;;;;;;;5.95;1.50;;;;;;;0.61;100.00;100108.69;4827856;29;20033;-69
2024/01/15 09:16:04;;;;;;;8.70;1.95;;;;;;;0.64;100.00;100107.69;4827979;29;20097;-69
2024/01/15 09:18:29;;;;;;;4.93;1.67;;;;;;;0.62;100.00;100115.69;4815107;29;20060;-69
2024/01/15 09:20:55;;;;;;;9.48;2.05;;;;;;;0.67;100.00;100119.03;4817023;29;20482;-71
2024/01/15 09:23:20;;;;;;;4.93;1.27;;;;;;;0.67;100.00;100116.38;4834378;29;20028;-71
2024/01/15 09:25:45;;;;;;;3.15;1.58;;;;;;;0.69;100.00;100105.72;4831713;29;20036;-70
2024/01/15 09:28:11;;;;;;;13.73;1.83;;;;;;;0.71;100.00;100110.94;4835937;29;20514;-71
2024/01/15 09:30:36;;;;;;;9.00;1.65;;;;;;;0.71;100.00;100109.16;4821212;29;20076;-71
2024/01/15 09:33:02;;;;;;;7.47;2.30;;;;;;;0.72;100.00;100102.06;4814550;29;20026;-71
2024/01/15 09:35:27;;;;;;;3.63;1.42;;;;;;;0.76;100.00;100098.34;4836259;29;20401;-71
2024/01/15 09:37:52;;;;;;;7.78;1.73;;;;;;;0.74;100.00;100102.88;4831748;29;20034;-71
2024/01/15 09:40:20;;;;;;;4.82;1.83;;;;;;;0.73;100.00;100102.00;4832569;29;20058;-71
2024/01/15 09:42:46;;;;;;;3.53;1.40;;;;;;;0.72;100.00;100096.78;4834658;29;20037;-71
2024/01/15 09:45:12;;;;;;;5.85;1.52;;;;;;;0.71;100.00;100103.84;4819908;29;20029;-70
2024/01/15 09:47:38;;;;;;;6.55;2.05;;;;;;;0.68;100.00;100104.84;4818795;29;20033;-71
2024/01/15 09:50:04;;;;;;;7.20;1.50;;;;;;;0.67;100.00;100124.31;4829587;29;20026;-71
2024/01/15 09:52:30;;;;;;;6.00;1.30;;;;;;;0.68;100.00;100126.00;4830154;29;20052;-71
2024/01/15 09:54:58;;;;;;;4.90;1.58;;;;;;;0.67;100.00;100126.94;4833131;29;20122;-71
2024/01/15 09:57:23;;;;;;;8.30;1.83;;;;;;;0.70;100.00;100133.88;4818805;29;20029;-71
2024/01/15 09:59:49;;;;;;;4.63;1.73;;;;;;;0.69;100.00;100127.72;4837418;29;20036;-71
2024/01/15 10:02:17;;;;;;;5.15;1.65;;;;;;;0.68;100.00;100136.59;4834959;29;20049;-71
2024/01/15 10:04:44;;;;;;;5.00;1.83;;;;;;;0.65;100.00;100131.44;4818718;29;20061;-71
2024/01/15 10:07:13;;;;;;;7.70;1.63;;;;;;;0.67;100.00;100129.59;4839666;29;20041;-71
2024/01/15 10:09:38;;;;;;;11.95;2.90;;;;;;;0.72;100.00;100137.31;4839569;29;20393;-71
2024/01/15 10:12:04;;;;;;;5.60;1.98;;;;;;;0.79;100.00;100138.78;4834173;29;20034;-71
2024/01/15 10:14:29;;;;;;;10.85;2.50;;;;;;;0.86;100.00;100134.06;4819526;29;20029;-71
2024/01/15 10:16:55;;;;;;;5.53;2.33;;;;;;;0.91;100.00;100132.06;4838313;29;20026;-71
2024/01/15 10:19:20;;;;;;;8.55;1.85;;;;;;;0.93;100.00;100130.22;4834135;29;20490;-71
2024/01/15 10:21:46;;;;;;;7.15;1.95;;;;;;;0.94;100.00;100121.34;4838129;29;20140;-71
2024/01/15 10:24:12;;;;;;;9.85;2.70;;;;;;;0.98;100.00;100115.00;4821150;29;20052;-71
2024/01/15 10:26:40;;;;;;;9.55;2.35;;;;;;;1.03;100.00;100114.78;4816456;29;20140;-71
2024/01/15 10:29:05;;;;;;;8.25;2.45;;;;;;;1.06;100.00;100113.78;4815501;29;20490;-71
2024/01/15 10:31:31;;;;;;;8.82;2.58;;;;;;;1.11;100.00;100117.06;4812051;29;20033;-69
2024/01/15 10:34:10;;;;;;;8.30;1.90;;;;;;;1.18;100.00;100121.16;4818068;29;20049;-68
2024/01/15 10:36:35;;;;;;;7.28;2.38;;;;;;;1.24;100.00;100125.31;4850037;29;20454;-69
2024/01/15 10:39:01;;;;;;;4.68;1.73;;;;;;;1.27;100.00;100117.22;4830585;29;20025;-69
2024/01/15 10:41:29;;;;;;;8.77;2.92;;;;;;;1.31;100.00;100127.59;4840779;29;20066;-69
2024/01/15 10:43:54;;;;;;;8.45;2.40;;;;;;;1.24;100.00;100120.88;4837112;29;20129;-69
2024/01/15 10:46:20;;;;;;;7.03;1.90;;;;;;;1.26;100.00;100123.44;4856285;29;20141;-70
2024/01/15 10:48:45;;;;;;;4.80;1.98;;;;;;;1.27;100.00;100119.88;4855539;29;20022;-69
2024/01/15 10:51:11;;;;;;;6.90;2.33;;;;;;;1.28;100.00;100117.16;4836037;29;20044;-70
2024/01/15 10:53:39;;;;;;;7.20;2.20;;;;;;;1.35;100.00;100123.03;4840974;29;20022;-69
2024/01/15 10:56:06;;;;;;;7.10;2.17;;;;;;;1.37;100.00;100116.72;4838986;29;20074;-70
2024/01/15 10:58:33;;;;;;;6.93;1.75;;;;;;;1.36;100.00;100122.97;4834134;29;20021;-69
2024/01/15 11:01:01;;;;;;;10.23;1.92;;;;;;;1.33;100.00;100119.56;4831715;29;20053;-70
2024/01/15 11:03:26;;;;;;;9.20;2.50;;;;;;;1.31;100.00;100119.66;4852341;29;20224;-69
2024/01/15 11:05:53;;;;;;;5.78;1.70;;;;;;;1.25;100.00;100113.81;4833438;29;20443;-69
2024/01/15 11:08:19;;;;;;;2.22;1.38;;;;;;;1.21;100.00;100113.91;4820936;29;20037;-69
2024/01/15 11:10:52;;;;;;;2.75;1.45;;;;;;;1.22;100.00;100120.09;4847064;29;20030;-69
2024/01/15 11:13:30;;;;;;;2.92;1.40;;;;;;;1.28;100.00;100119.78;4831033;29;20030;-70
2024/01/15 11:16:03;;;;;;;9.60;1.90;;;;;;;1.47;100.00;100132.19;4839998;29;20044;-70
2024/01/15 11:19:00;;;;;;;2.05;1.10;;;;;;;1.56;100.00;100137.03;4853414;29;20025;-69
2024/01/15 11:21:27;;;;;;;4.88;1.38;;;;;;;1.69;100.00;100124.91;4852199;29;20061;-69
2024/01/15 11:23:58;;;;;;;7.28;2.05;;;;;;;1.77;100.00;100135.13;4848488;29;20037;-70
2024/01/15 11:26:35;;;;;;;4.32;1.88;;;;;;;1.79;100.00;100143.88;4849170;29;20032;-69
2024/01/15 11:29:03;;;;;;;4.35;1.52;;;;;;;1.71;100.00;100156.63;4838846;29;20104;-70
2024/01/15 11:31:48;;;;;;;4.82;1.27;;;;;;;1.61;100.00;100158.88;4834236;29;20029;-69
2024/01/15 11:34:14;;;;;;;1.63;1.00;;;;;;;1.52;100.00;100148.69;4833901;29;20553;-69
2024/01/15 11:36:45;;;;;;;4.65;1.17;;;;;;;1.37;100.00;100152.94;4850109;29;20143;-68
2024/01/15 11:39:29;;;;;;;3.13;1.10;;;;;;;1.30;100.00;100136.47;4832697;29;20042;-71
2024/01/15 11:41:59;;;;;;;1.67;1.13;;;;;;;1.17;100.00;100133.53;4853239;29;20018;-69
2024/01/15 11:44:25;;;;;;;;;;;;;;;1.21;100.00;100144.84;4838631;29;20282;-69
2024/01/15 11:47:05;;;;;;;3.95;1.73;;;;;;;1.11;100.00;100139.09;4837868;29;19931;-70
2024/01/15 11:50:00;;;;;;;4.65;1.80;;;;;;;1.07;100.00;100142.81;4841531;29;20041;-68
2024/01/15 11:52:29;;;;;;;10.18;2.25;;;;;;;1.07;100.00;100142.81;4849729;29;20076;-68
2024/01/15 11:55:19;;;;;;;4.20;1.60;;;;;;;1.14;100.00;100156.63;4838315;29;20033;-68
2024/01/15 11:57:54;;;;;;;4.80;1.52;;;;;;;1.21;100.00;100147.47;4850655;29;20025;-69
2024/01/15 12:00:20;;;;;;;3.45;1.55;;;;;;;1.22;100.00;100158.00;4833914;29;20037;-68
2024/01/15 12:02:48;;;;;;;6.22;1.73;;;;;;;1.26;100.00;100164.03;4852134;29;20029;-68
2024/01/15 12:05:15;;;;;;;4.65;2.08;;;;;;;1.27;100.00;100149.84;4838460;29;20104;-69
2024/01/15 12:07:48;;;;;;;3.90;2.03;;;;;;;1.28;100.00;100154.22;4850408;29;20503;-68
2024/01/15 12:10:15;;;;;;;7.05;1.95;;;;;;;1.27;100.00;100154.28;4852387;29;20033;-69
2024/01/15 12:13:00;;;;;;;9.88;2.38;;;;;;;1.28;100.00;100146.28;4831770;29;20528;-69
2024/01/15 12:15:27;;;;;;;5.20;2.22;;;;;;;1.29;100.00;100142.69;4839011;29;20040;-68
2024/01/15 12:17:55;;;;;;;7.80;2.35;;;;;;;1.30;100.00;100151.50;4834758;29;20442;-69
2024/01/15 12:20:21;;;;;;;9.35;2.53;;;;;;;1.32;100.00;100149.66;4834237;29;20121;-69
2024/01/15 12:22:46;;;;;;;5.35;2.10;;;;;;;1.33;100.00;100160.16;4837077;29;20025;-69
2024/01/15 12:25:12;;;;;;;5.50;2.13;;;;;;;1.34;100.00;100156.56;4836578;29;20036;-68
2024/01/15 12:27:38;;;;;;;6.75;2.15;;;;;;;1.33;100.00;100157.53;4855195;29;20054;-68
2024/01/15 12:30:04;;;;;;;4.65;2.15;;;;;;;1.32;100.00;100154.94;4838382;29;20438;-68
2024/01/15 12:32:29;;;;;;;8.55;2.85;;;;;;;1.29;100.00;100158.59;4833786;29;20029;-68
2024/01/15 12:34:55;;;;;;;5.30;2.00;;;;;;;1.29;100.00;100168.28;4842196;29;20114;-71
2024/01/15 12:37:20;;;;;;;10.10;2.70;;;;;;;1.30;100.00;100165.56;4832718;29;20090;-68
2024/01/15 12:39:46;;;;;;;6.57;1.90;;;;;;;1.28;100.00;100161.31;4816580;29;20030;-68
2024/01/15 12:42:13;;;;;;;6.63;1.98;;;;;;;1.32;100.00;100174.31;4813917;29;20515;-68
2024/01/15 12:44:39;;;;;;;3.60;1.58;;;;;;;1.31;100.00;100177.88;4826715;29;20093;-68
2024/01/15 12:47:05;;;;;;;10.60;2.20;;;;;;;1.39;100.00;100173.13;4834991;29;20070;-68
2024/01/15 12:49:30;;;;;;;3.17;1.48;;;;;;;1.47;100.00;100177.19;4834406;29;20034;-69
2024/01/15 12:51:59;;;;;;;8.35;2.15;;;;;;;1.48;100.00;100186.84;4818781;29;20038;-71
2024/01/15 12:54:25;;;;;;;4.13;2.28;;;;;;;1.56;100.00;100190.00;4814891;29;20045;-71
2024/01/15 12:56:51;;;;;;;1.58;1.05;;;;;;;1.50;100.00;100207.03;4836125;29;20038;-71
2024/01/15 12:59:17;;;;;;;3.90;1.42;;;;;;;1.44;100.00;100204.66;4816390;29;20090;-70
2024/01/15 13:01:43;;;;;;;3.03;1.30;;;;;;;1.39;100.00;100193.41;4830395;29;20076;-74
2024/01/15 13:04:08;;;;;;;7.95;2.22;;;;;;;1.31;100.00;100208.81;4835661;29;20051;-73
2024/01/15 13:06:37;;;;;;;8.57;2.50;;;;;;;1.20;100.00;100211.91;4816415;29;20045;-73
2024/01/15 13:09:05;;;;;;;5.60;1.60;;;;;;;1.07;100.00;100211.63;4820180;29;20062;-73
2024/01/15 13:11:34;;;;;;;7.38;1.60;;;;;;;1.04;100.00;100217.91;4831745;29;20029;-70
2024/01/15 13:13:59;;;;;;;6.10;1.95;;;;;;;1.03;100.00;100210.91;4831448;29;20041;-69
2024/01/15 13:16:28;;;;;;;4.43;1.83;;;;;;;0.94;100.00;100213.94;4833810;29;20457;-70
2024/01/15 13:18:53;;;;;;;10.73;2.55;;;;;;;0.88;100.00;100222.16;4832969;29;20090;-70
2024/01/15 13:21:19;;;;;;;8.15;1.80;;;;;;;0.86;100.00;100208.13;4834682;29;20482;-70
2024/01/15 13:23:44;;;;;;;6.30;2.28;;;;;;;0.80;100.00;100208.41;4827316;29;20039;-69
2024/01/15 13:26:09;;;;;;;5.90;2.30;;;;;;;0.83;100.00;100202.97;4834287;29;20101;-69
2024/01/15 13:28:35;;;;;;;5.15;2.20;;;;;;;0.80;100.00;100211.03;4833317;29;20493;-70
2024/01/15 13:31:01;;;;;;;8.52;2.75;;;;;;;0.77;100.00;100211.19;4818016;29;20041;-70
2024/01/15 13:33:29;;;;;;;11.05;2.67;;;;;;;0.67;100.00;100213.34;4833512;29;20038;-70
2024/01/15 13:35:54;;;;;;;6.03;2.30;;;;;;;0.66;100.00;100214.28;4837018;29;20369;-70
2024/01/15 13:38:20;;;;;;;6.07;2.10;;;;;;;0.71;100.00;100214.09;4815594;29;20134;-70
2024/01/15 13:40:45;;;;;;;5.97;2.63;;;;;;;0.76;100.00;100217.38;4826786;29;20048;-70
2024/01/15 13:43:11;;;;;;;4.53;2.05;;;;;;;0.82;100.00;100217.09;4822206;29;20045;-69
2024/01/15 13:45:37;;;;;;;10.07;2.90;;;;;;;0.86;100.00;100213.41;4822879;29;20371;-70
2024/01/15 13:48:05;;;;;;;7.47;2.63;;;;;;;0.87;100.00;100212.50;4819165;29;20045;-70
2024/01/15 13:50:31;;;;;;;11.15;3.40;;;;;;;0.87;100.00;100213.34;4822914;29;20030;-70
2024/01/15 13:52:56;;;;;;;12.18;3.80;;;;;;;0.89;100.00;100223.00;4822631;29;20455;-70
2024/01/15 13:55:21;;;;;;;14.52;3.83;;;;;;;0.90;100.00;100217.66;4830422;29;21857;-70
2024/01/15 13:57:47;;;;;;;11.18;3.63;;;;;;;0.90;100.00;100219.44;4823007;29;20034;-70
2024/01/15 14:00:14;;;;;;;11.10;3.85;;;;;;;0.93;100.00;100222.81;4819772;29;20042;-70
2024/01/15 14:02:40;;;;;;;11.95;3.20;;;;;;;0.92;100.00;100223.72;4834972;29;20022;-70
2024/01/15 14:05:06;;;;;;;8.13;2.72;;;;;;;0.91;100.00;100226.44;4816773;29;20214;-70
2024/01/15 14:07:32;;;;;;;7.90;2.70;;;;;;;0.87;100.00;100226.56;4820263;29;20033;-70
2024/01/15 14:09:58;;;;;;;7.07;2.88;;;;;;;0.88;100.00;100227.47;4834468;29;20038;-70
2024/01/15 14:12:23;;;;;;;7.45;2.75;;;;;;;0.86;100.00;100232.81;4828787;29;20494;-70
2024/01/15 14:14:48;;;;;;;11.70;2.88;;;;;;;0.87;100.00;100236.31;4817039;29;20030;-70
2024/01/15 14:17:13;;;;;;;8.95;2.70;;;;;;;0.85;100.00;100228.44;4832478;29;20030;-70
2024/01/15 14:19:39;;;;;;;8.05;2.80;;;;;;;0.89;100.00;100234.44;4834096;29;20125;-70
2024/01/15 14:22:04;;;;;;;6.80;2.30;;;;;;;0.93;100.00;100236.03;4833372;29;20033;-71
2024/01/15 14:24:29;;;;;;;8.27;2.42;;;;;;;1.00;100.00;100242.78;4819926;29;20029;-73
2024/01/15 14:26:55;;;;;;;2.35;1.77;;;;;;;1.13;100.00;100258.13;4835286;29;20071;-72
2024/01/15 14:29:22;;;;;;;6.75;1.70;;;;;;;1.28;100.00;100252.16;4831796;29;20026;-72
2024/01/15 14:31:47;;;;;;;8.15;2.38;;;;;;;1.28;100.00;100257.44;4815315;29;20073;-71
2024/01/15 14:34:13;;;;;;;5.88;1.65;;;;;;;1.30;100.00;100260.03;4823191;29;20069;-72
2024/01/15 14:36:38;;;;;;;6.03;1.98;;;;;;;1.28;100.00;100273.34;4835597;29;20112;-72
2024/01/15 14:39:03;;;;;;;7.88;2.25;;;;;;;1.25;100.00;100272.63;4853542;29;20097;-71
2024/01/15 14:41:29;;;;;;;5.50;1.88;;;;;;;1.23;100.00;100267.41;4851546;29;20034;-73
2024/01/15 14:43:55;;;;;;;8.25;2.45;;;;;;;1.21;100.00;100262.16;4851589;29;20048;-71
2024/01/15 14:46:20;;;;;;;5.53;1.77;;;;;;;1.15;100.00;100267.72;4836947;29;20357;-71
2024/01/15 14:48:46;;;;;;;6.25;2.03;;;;;;;1.10;100.00;100267.06;4829469;29;20037;-72
2024/01/15 14:51:11;;;;;;;6.35;2.15;;;;;;;1.09;100.00;100273.28;4854134;29;20041;-72
2024/01/15 14:53:36;;;;;;;9.32;2.42;;;;;;;1.10;100.00;100277.66;4853874;29;20042;-72
2024/01/15 14:56:02;;;;;;;8.52;2.10;;;;;;;1.20;100.00;100291.34;4852391;29;20037;-72
2024/01/15 14:58:28;;;;;;;8.75;2.10;;;;;;;1.09;100.00;100299.75;4851433;29;20030;-72
2024/01/15 15:00:53;;;;;;;4.50;1.88;;;;;;;1.11;100.00;100302.31;4852214;29;20090;-72
2024/01/15 15:03:18;;;;;;;11.15;2.60;;;;;;;1.02;100.00;100304.44;4855084;29;20033;-70
2024/01/15 15:05:44;;;;;;;7.78;2.65;;;;;;;1.02;100.00;100322.09;4849368;29;20124;-72
2024/01/15 15:08:11;;;;;;;8.93;3.35;;;;;;;1.05;100.00;100324.63;4845115;29;20479;-72
2024/01/15 15:10:38;;;;;;;11.32;2.63;;;;;;;1.01;100.00;100336.25;4851435;29;20021;-72
2024/01/15 15:13:03;;;;;;;10.02;2.10;;;;;;;1.03;100.00;100334.41;4838393;29;20116;-72
2024/01/15 15:15:29;;;;;;;10.52;1.88;;;;;;;1.00;100.00;100330.09;4853605;29;20486;-71
2024/01/15 15:17:54;;;;;;;9.63;2.67;;;;;;;0.96;100.00;100325.88;4835588;29;20037;-75
2024/01/15 15:20:19;;;;;;;5.63;2.03;;;;;;;0.91;100.00;100327.84;4853972;29;20037;-72
2024/01/15 15:22:45;;;;;;;7.25;1.98;;;;;;;0.85;100.00;100328.97;4851307;29;20447;-71
2024/01/15 15:25:11;;;;;;;7.13;1.80;;;;;;;0.80;100.00;100330.94;4850719;29;20056;-71
2024/01/15 15:27:37;;;;;;;12.25;2.28;;;;;;;0.78;100.00;100326.66;4838294;29;20025;-72
2024/01/15 15:30:03;;;;;;;11.75;2.47;;;;;;;0.74;100.00;100332.97;4854847;29;20121;-71
2024/01/15 15:32:28;;;;;;;6.72;1.83;;;;;;;0.68;100.00;100329.66;4847851;29;20033;-68
2024/01/15 15:34:54;;;;;;;14.00;2.65;;;;;;;0.66;100.00;100328.00;4835422;29;20148;-68
2024/01/15 15:37:19;;;;;;;8.77;2.35;;;;;;;0.59;100.00;100332.69;4828382;29;20124;-68
2024/01/15 15:39:44;;;;;;;9.25;2.15;;;;;;;0.58;100.00;100341.53;4831983;29;20529;-67
2024/01/15 15:42:10;;;;;;;5.57;1.85;;;;;;;0.52;100.00;100339.13;4836627;29;20030;-68
2024/01/15 15:44:35;;;;;;;10.80;3.08;;;;;;;0.51;100.00;100351.50;4844812;29;20033;-67
2024/01/15 15:47:00;;;;;;;14.38;3.08;;;;;;;0.48;100.00;100343.69;4828763;29;20068;-70
2024/01/15 15:49:28;;;;;;;12.13;3.97;;;;;;;0.46;100.00;100344.66;4828782;29;20030;-68
2024/01/15 15:51:54;;;;;;;20.67;4.57;;;;;;;0.47;100.00;100346.38;4829947;29;20033;-68
2024/01/15 15:54:19;;;;;;;11.73;2.97;;;;;;;0.44;100.00;100350.00;4832556;29;20040;-68
2024/01/15 15:56:49;;;;;;;14.73;2.08;;;;;;;0.44;100.00;100357.06;4847430;29;20045;-68
2024/01/15 15:59:17;;;;;;;8.90;2.75;;;;;;;0.44;100.00;100362.34;4826567;29;20391;-69
2024/01/15 16:01:43;;;;;;;12.20;2.10;;;;;;;0.40;100.00;100363.41;4846709;29;20059;-68
2024/01/15 16:04:08;;;;;;;8.68;2.15;;;;;;;0.40;100.00;100369.56;4829020;29;20042;-68
2024/01/15 16:06:33;;;;;;;9.57;2.20;;;;;;;0.41;100.00;100373.94;4849285;29;20059;-68
2024/01/15 16:08:59;;;;;;;4.50;1.85;;;;;;;0.42;100.00;100378.28;4833871;29;20048;-68
2024/01/15 16:11:24;;;;;;;12.95;2.45;;;;;;;0.42;100.00;100380.06;4831920;29;20524;-69
2024/01/15 16:13:54;;;;;;;8.52;2.55;;;;;;;0.40;100.00;100384.56;4832419;29;20044;-69
2024/01/15 16:16:19;;;;;;;7.68;1.90;;;;;;;0.38;100.00;100396.97;4845796;29;20150;-68
2024/01/15 16:18:45;;;;;;;8.88;2.10;;;;;;;0.32;100.00;100398.06;4846944;29;20124;-71
2024/01/15 16:21:10;;;;;;;6.82;1.98;;;;;;;0.29;100.00;100400.81;4833722;29;20501;-69
2024/01/15 16:23:36;;;;;;;4.10;1.80;;;;;;;0.28;100.00;100409.66;4831769;29;20070;-70
2024/01/15 16:26:02;;;;;;;10.18;2.10;;;;;;;0.31;100.00;100413.06;4828699;29;20034;-68
2024/01/15 16:28:27;;;;;;;10.10;2.50;;;;;;;0.36;100.00;100420.81;4847777;29;20126;-68
2024/01/15 16:30:52;;;;;;;11.43;2.72;;;;;;;0.40;100.00;100390.69;4846079;29;20073;-68
2024/01/15 16:33:18;;;;;;;4.93;1.63;;;;;;;0.36;100.00;100410.25;4831726;29;20112;-69
2024/01/15 16:35:43;;;;;;;7.60;2.42;;;;;;;0.33;100.00;100399.78;4828788;29;20516;-68
2024/01/15 16:38:08;;;;;;;8.07;2.15;;;;;;;0.36;100.00;100409.38;4814111;29;20042;-68
2024/01/15 16:40:33;;;;;;;10.90;2.53;;;;;;;0.31;100.00;100415.72;4831005;29;20038;-68
2024/01/15 16:42:59;;;;;;;11.38;3.38;;;;;;;0.27;100.00;100422.03;4815767;29;20069;-70
2024/01/15 16:45:24;;;;;;;8.75;2.47;;;;;;;0.25;100.00;100428.28;4830670;29;20052;-71
2024/01/15 16:47:50;;;;;;;10.82;2.22;;;;;;;0.21;100.00;100432.84;4811912;29;20408;-71
2024/01/15 16:50:16;;;;;;;11.45;2.10;;;;;;;0.16;100.00;100435.66;4815409;29;20034;-71
2024/01/15 16:52:41;;;;;;;11.00;2.70;;;;;;;0.14;100.00;100433.97;4814477;29;20018;-70
2024/01/15 16:55:06;;;;;;;6.55;2.10;;;;;;;0.13;100.00;100435.75;4813443;29;20133;-71
2024/01/15 16:57:32;;;;;;;16.38;3.75;;;;;;;0.13;100.00;100442.81;4815001;29;20804;-71
2024/01/15 16:59:57;;;;;;;13.70;2.95;;;;;;;0.16;100.00;100434.75;4828972;29;20034;-71
2024/01/15 17:02:23;;;;;;;14.18;3.40;;;;;;;0.14;100.00;100436.63;4814199;29;20030;-71
2024/01/15 17:04:48;;;;;;;14.98;3.92;;;;;;;0.14;100.00;100434.81;4810547;29;20645;-71
2024/01/15 17:07:13;;;;;;;11.23;2.95;;;;;;;0.15;100.00;100441.84;4812624;29;20022;-71
2024/01/15 17:09:41;;;;;;;9.27;3.08;;;;;;;0.13;100.00;100448.97;4828299;29;20037;-71
2024/01/15 17:12:07;;;;;;;13.32;3.25;;;;;;;0.12;100.00;100449.03;4829492;29;20042;-71
2024/01/15 17:14:32;;;;;;;15.77;3.70;;;;;;;0.08;100.00;100448.25;4829610;29;20105;-71
2024/01/15 17:16:58;;;;;;;12.93;3.83;;;;;;;0.06;100.00;100455.41;4812166;29;20026;-71
2024/01/15 17:19:23;;;;;;;10.38;2.78;;;;;;;0.06;100.00;100458.03;4830011;29;20555;-71
2024/01/15 17:21:49;;;;;;;13.43;3.90;;;;;;;0.05;100.00;100458.94;4829756;29;20030;-71
2024/01/15 17:24:14;;;;;;;13.20;2.67;;;;;;;0.05;100.00;100469.53;4827314;29;20614;-71
2024/01/15 17:26:39;;;;;;;14.55;4.30;;;;;;;0.06;100.00;100471.25;4813627;29;20098;-71
2024/01/15 17:29:05;;;;;;;10.85;3.10;;;;;;;0.04;100.00;100466.94;4826988;29;20427;-71
2024/01/15 17:31:30;;;;;;;11.52;3.15;;;;;;;0.04;100.00;100475.72;4830929;29;20158;-71
2024/01/15 17:33:55;;;;;;;19.20;3.92;;;;;;;0.01;100.00;100473.19;4811691;29;20042;-71
2024/01/15 17:36:22;;;;;;;12.10;3.22;;;;;;;0.01;100.00;100474.97;4832108;29;20070;-71
2024/01/15 17:38:48;;;;;;;17.30;3.65;;;;;;;0.00;100.00;100476.75;4826273;29;20133;-71
2024/01/15 17:41:13;;;;;;;12.10;3.25;;;;;;;-0.01;100.00;100481.16;4833573;29;20056;-71
2024/01/15 17:43:38;;;;;;;15.50;3.63;;;;;;;0.01;100.00;100477.63;4832840;29;20056;-71
2024/01/15 17:46:04;;;;;;;9.95;2.92;;;;;;;0.02;100.00;100482.00;4832290;29;20053;-71
2024/01/15 17:48:31;;;;;;;15.60;4.38;;;;;;;0.01;100.00;100488.19;4816895;29;20482;-71
2024/01/15 17:50:57;;;;;;;19.60;4.43;;;;;;;-0.01;100.00;100499.66;4836870;29;20053;-71
2024/01/15 17:53:22;;;;;;;15.32;4.13;;;;;;;-0.02;100.00;100500.56;4832414;29;20086;-71
2024/01/15 17:55:48;;;;;;;16.08;4.35;;;;;;;-0.02;100.00;100507.63;4832237;29;20455;-71